This is the latest recevied weather packets stored in our database for station/object OM2RC-6. If no packets are shown the sender has not sent any weather packets the latest 10 day(s).
| Time | Temp. | Humidity | Pressure | Rain* | Wind** | Luminosity | Snow |
|---|---|---|---|---|---|---|---|
| 1777411375 | 8.33° C | 74% | 1022.8 hPa | - | - | - | - |
| 1777411074 | 8.33° C | 75% | 1022.7 hPa | - | - | - | - |
| 1777410472 | 7.78° C | 78% | 1022.6 hPa | - | - | - | - |
| 1777410171 | 7.78° C | 80% | 1022.6 hPa | - | - | - | - |
| 1777409870 | 8.33° C | 75% | 1022.6 hPa | - | - | - | - |
| 1777409568 | 8.33° C | 74% | 1022.5 hPa | - | - | - | - |
| 1777409267 | 8.33° C | 78% | 1022.5 hPa | - | - | - | - |
| 1777408965 | 8.33° C | 78% | 1022.5 hPa | - | - | - | - |
| 1777408664 | 8.33° C | 78% | 1022.5 hPa | - | - | - | - |
| 1777408363 | 8.33° C | 78% | 1022.5 hPa | - | - | - | - |
| 1777408062 | 7.78° C | 85% | 1022.4 hPa | - | - | - | - |
| 1777407761 | 7.78° C | 84% | 1022.5 hPa | - | - | - | - |
| 1777407460 | 8.33° C | 82% | 1022.4 hPa | - | - | - | - |
| 1777407159 | 8.33° C | 81% | 1022.3 hPa | - | - | - | - |
| 1777406858 | 8.33° C | 80% | 1022.3 hPa | - | - | - | - |
| 1777406542 | 8.33° C | 81% | 1022.3 hPa | - | - | - | - |
| 1777406240 | 8.89° C | 79% | 1022.3 hPa | - | - | - | - |
| 1777405940 | 8.89° C | 78% | 1022.3 hPa | - | - | - | - |
| 1777405639 | 8.33° C | 82% | 1022.2 hPa | - | - | - | - |
| 1777405338 | 8.33° C | 83% | 1022.2 hPa | - | - | - | - |
| 1777405037 | 8.33° C | 81% | 1022.1 hPa | - | - | - | - |
| 1777404134 | 9.44° C | 75% | 1022 hPa | - | - | - | - |
| 1777403832 | 9.44° C | 74% | 1022 hPa | - | - | - | - |
| 1777403531 | 9.44° C | 70% | 1021.9 hPa | - | - | - | - |
| 1777403230 | 10° C | 71% | 1021.9 hPa | - | - | - | - |
* Rain since midnight (hover to see other rain measurements)
** Current wind speed in m/s (hover to see current wind gust speed)